createdAt,value
2023-05-21T00:00:13.527Z,30.27
2023-05-21T00:02:43.547Z,30.12
2023-05-21T00:05:15.217Z,30.33
2023-05-21T00:07:44.662Z,30.30
2023-05-21T00:10:13.968Z,30.23
2023-05-21T00:12:42.894Z,30.12
2023-05-21T00:15:12.064Z,30.04
2023-05-21T00:17:41.058Z,29.80
2023-05-21T00:20:10.544Z,29.94
2023-05-21T00:22:40.882Z,29.86
2023-05-21T00:25:11.546Z,29.87
2023-05-21T00:27:40.861Z,29.69
2023-05-21T00:30:10.091Z,29.91
2023-05-21T00:32:39.450Z,29.80
2023-05-21T00:35:09.330Z,29.64
2023-05-21T00:37:38.728Z,29.69
2023-05-21T00:40:12.234Z,29.61
2023-05-21T00:42:41.951Z,29.71
2023-05-21T00:45:11.072Z,29.44
2023-05-21T00:47:40.125Z,29.40
2023-05-21T00:50:11.180Z,29.44
2023-05-21T00:52:42.593Z,29.32
2023-05-21T00:55:12.077Z,28.96
2023-05-21T00:57:42.061Z,29.16
2023-05-21T01:00:13.037Z,28.91
2023-05-21T01:02:45.158Z,28.91
2023-05-21T01:05:15.912Z,28.45
2023-05-21T01:07:44.963Z,28.10
2023-05-21T01:10:14.928Z,28.04
2023-05-21T01:12:45.800Z,27.81
2023-05-21T01:15:15.457Z,28.04
2023-05-21T01:17:46.663Z,28.02
2023-05-21T01:20:21.314Z,27.56
2023-05-21T01:22:56.483Z,27.47
2023-05-21T01:25:26.499Z,27.09
2023-05-21T01:27:55.588Z,26.89
2023-05-21T01:30:26.003Z,26.86
2023-05-21T01:33:02.000Z,26.57
2023-05-21T01:35:34.256Z,26.33
2023-05-21T01:38:20.791Z,25.37
2023-05-21T01:41:18.722Z,25.31
2023-05-21T01:43:48.819Z,24.78
2023-05-21T01:46:22.597Z,24.33
2023-05-21T01:48:53.708Z,23.89
2023-05-21T01:51:23.074Z,23.89
2023-05-21T01:53:52.386Z,23.26
2023-05-21T01:56:23.648Z,22.76
2023-05-21T01:58:53.325Z,21.88
2023-05-21T02:01:22.824Z,21.63
2023-05-21T02:03:52.240Z,21.51
2023-05-21T02:06:21.452Z,21.14
2023-05-21T02:08:50.842Z,20.68
2023-05-21T02:11:19.950Z,20.09
2023-05-21T02:13:48.947Z,19.70
2023-05-21T02:16:18.294Z,19.05
2023-05-21T02:18:48.843Z,18.95
2023-05-21T02:21:18.152Z,18.26
2023-05-21T02:23:47.196Z,17.94
2023-05-21T02:26:18.052Z,18.02
2023-05-21T02:28:47.186Z,16.93
2023-05-21T02:31:16.091Z,16.67
2023-05-21T02:33:44.948Z,16.40
2023-05-21T02:36:13.809Z,16.21
2023-05-21T02:38:46.023Z,16.27
2023-05-21T02:41:15.019Z,16.13
2023-05-21T02:43:44.217Z,15.31
2023-05-21T02:46:13.254Z,15.28
2023-05-21T02:48:42.361Z,15.16
2023-05-21T02:51:12.095Z,15.20
2023-05-21T02:53:41.135Z,15.12
2023-05-21T02:56:10.021Z,14.82
2023-05-21T02:58:39.218Z,14.49
2023-05-21T03:01:09.105Z,13.96
2023-05-21T03:03:38.290Z,13.50
2023-05-21T03:06:10.778Z,13.71
2023-05-21T03:08:40.044Z,13.69
2023-05-21T03:11:08.945Z,13.60
2023-05-21T03:13:37.859Z,13.59
2023-05-21T03:16:06.934Z,13.24
2023-05-21T03:18:35.903Z,12.73
2023-05-21T03:21:05.255Z,12.64
2023-05-21T03:23:34.259Z,12.18
2023-05-21T03:26:03.173Z,12.13
2023-05-21T03:28:32.362Z,12.02
2023-05-21T03:31:01.470Z,11.67
2023-05-21T03:33:50.248Z,11.55
2023-05-21T03:36:26.063Z,11.64
2023-05-21T03:38:55.104Z,11.24
2023-05-21T03:41:24.187Z,10.95
2023-05-21T03:43:58.027Z,10.97
2023-05-21T03:46:31.548Z,10.69
2023-05-21T03:49:10.234Z,10.27
2023-05-21T03:51:41.073Z,10.71
2023-05-21T03:54:13.577Z,9.73
2023-05-21T03:56:42.526Z,10.10
2023-05-21T03:59:11.351Z,10.27
2023-05-21T04:01:41.003Z,10.10
2023-05-21T04:04:12.836Z,10.43
2023-05-21T04:06:45.071Z,10.40
2023-05-21T04:09:15.066Z,10.13
2023-05-21T04:11:44.210Z,9.91
2023-05-21T04:14:13.400Z,9.83
2023-05-21T04:16:44.653Z,9.76
2023-05-21T04:19:13.630Z,9.60
2023-05-21T04:21:42.627Z,9.48
2023-05-21T04:24:12.932Z,9.68
2023-05-21T04:26:52.942Z,9.60
2023-05-21T04:29:22.029Z,9.57
2023-05-21T04:31:52.337Z,10.07
2023-05-21T04:34:21.315Z,9.97
2023-05-21T04:36:50.424Z,9.91
2023-05-21T04:39:19.570Z,9.51
2023-05-21T04:41:51.367Z,9.85
2023-05-21T04:44:20.293Z,9.72
2023-05-21T04:46:49.694Z,9.82
2023-05-21T04:49:21.518Z,9.17
2023-05-21T04:51:50.592Z,9.71
2023-05-21T04:54:19.674Z,10.06
2023-05-21T04:56:48.656Z,9.58
2023-05-21T04:59:19.459Z,9.86
2023-05-21T05:01:48.623Z,9.62
2023-05-21T05:04:17.804Z,9.67
2023-05-21T05:06:46.691Z,9.23
2023-05-21T05:09:15.685Z,9.21
2023-05-21T05:11:44.626Z,9.68
2023-05-21T05:14:13.961Z,9.48
2023-05-21T05:16:44.275Z,9.55
2023-05-21T05:19:13.220Z,9.61
2023-05-21T05:21:42.287Z,9.34
2023-05-21T05:24:11.320Z,9.32
2023-05-21T05:26:40.226Z,9.78
2023-05-21T05:29:09.212Z,9.35
2023-05-21T05:31:38.677Z,9.91
2023-05-21T05:34:08.285Z,9.93
2023-05-21T05:36:37.135Z,9.50
2023-05-21T05:39:06.307Z,9.40
2023-05-21T05:41:35.282Z,9.16
2023-05-21T05:44:04.390Z,9.48
2023-05-21T05:46:37.506Z,9.26
2023-05-21T05:49:06.533Z,9.68
2023-05-21T05:51:35.505Z,9.39
2023-05-21T05:54:04.703Z,9.57
2023-05-21T05:56:34.764Z,9.58
2023-05-21T05:59:06.144Z,9.39
2023-05-21T06:01:39.192Z,9.07
2023-05-21T06:04:08.877Z,9.08
2023-05-21T06:06:37.908Z,9.26
2023-05-21T06:09:07.026Z,8.87
2023-05-21T06:11:36.510Z,8.96
2023-05-21T06:14:05.451Z,8.91
2023-05-21T06:16:36.264Z,9.02
2023-05-21T06:19:05.335Z,9.11
2023-05-21T06:21:34.466Z,8.50
2023-05-21T06:24:06.360Z,8.87
2023-05-21T06:26:35.377Z,8.99
2023-05-21T06:29:04.865Z,8.38
2023-05-21T06:31:33.876Z,8.88
2023-05-21T06:34:03.031Z,8.87
2023-05-21T06:36:33.041Z,8.77
2023-05-21T06:39:02.292Z,8.68
2023-05-21T06:41:31.230Z,8.99
2023-05-21T06:44:04.913Z,8.84
2023-05-21T06:47:00.146Z,8.80
2023-05-21T06:49:29.101Z,8.72
2023-05-21T06:51:58.160Z,8.91
2023-05-21T06:54:27.218Z,8.53
2023-05-21T06:56:56.959Z,8.69
2023-05-21T06:59:27.077Z,8.59
2023-05-21T07:01:57.419Z,8.46
2023-05-21T07:04:27.174Z,8.81
2023-05-21T07:06:56.436Z,8.81
2023-05-21T07:09:26.512Z,9.02
2023-05-21T07:11:55.529Z,8.89
2023-05-21T07:14:27.191Z,8.65
2023-05-21T07:16:56.231Z,8.57
2023-05-21T07:19:25.219Z,8.43
2023-05-21T07:21:55.592Z,8.72
2023-05-21T07:24:25.133Z,8.75
2023-05-21T07:26:54.206Z,8.64
2023-05-21T07:29:23.799Z,8.96
2023-05-21T07:31:53.561Z,9.25
2023-05-21T07:34:22.717Z,8.76
2023-05-21T07:36:51.896Z,9.07
2023-05-21T07:39:20.853Z,8.86
2023-05-21T07:41:50.455Z,9.64
2023-05-21T07:44:19.464Z,9.12
2023-05-21T07:46:49.858Z,9.20
2023-05-21T07:49:19.434Z,9.46
2023-05-21T07:51:49.940Z,9.93
2023-05-21T07:54:20.221Z,10.60
2023-05-21T07:56:50.206Z,11.36
2023-05-21T07:59:45.596Z,12.45
2023-05-21T08:02:15.763Z,12.94
2023-05-21T08:04:45.128Z,13.42
2023-05-21T08:07:14.385Z,13.71
2023-05-21T08:09:43.358Z,14.10
2023-05-21T08:12:16.331Z,14.04
2023-05-21T08:14:46.347Z,14.36
2023-05-21T08:17:17.340Z,14.36
2023-05-21T08:19:46.266Z,14.59
2023-05-21T08:22:15.270Z,14.68
2023-05-21T08:24:47.297Z,14.84
2023-05-21T08:27:16.868Z,14.75
2023-05-21T08:29:46.415Z,14.96
2023-05-21T08:32:15.372Z,15.17
2023-05-21T08:34:44.623Z,15.39
2023-05-21T08:37:28.051Z,15.56
2023-05-21T08:40:04.980Z,15.61
2023-05-21T08:42:51.588Z,15.73
2023-05-21T08:45:38.805Z,16.23
2023-05-21T08:48:12.088Z,16.16
2023-05-21T08:50:42.341Z,16.05
2023-05-21T08:53:28.554Z,16.25
2023-05-21T08:55:59.236Z,16.38
2023-05-21T08:58:44.394Z,16.53
2023-05-21T09:01:15.237Z,16.60
2023-05-21T09:03:48.208Z,16.52
2023-05-21T09:06:17.613Z,16.66
2023-05-21T09:08:54.799Z,16.59
2023-05-21T09:11:30.394Z,16.51
2023-05-21T09:14:02.066Z,16.66
2023-05-21T09:16:41.687Z,16.79
2023-05-21T09:19:10.831Z,16.65
2023-05-21T09:21:40.301Z,16.99
2023-05-21T09:24:15.852Z,16.75
2023-05-21T09:26:45.623Z,16.97
2023-05-21T09:29:15.141Z,17.29
2023-05-21T09:31:47.489Z,17.33
2023-05-21T09:34:17.004Z,17.32
2023-05-21T09:39:42.390Z,17.29
2023-05-21T09:42:11.631Z,17.50
2023-05-21T09:44:44.054Z,17.53
2023-05-21T09:47:13.024Z,17.61
2023-05-21T09:49:45.226Z,17.70
2023-05-21T09:52:14.142Z,17.91
2023-05-21T09:54:42.997Z,17.89
2023-05-21T09:57:11.756Z,17.82
2023-05-21T09:59:40.751Z,17.76
2023-05-21T10:02:23.233Z,18.05
2023-05-21T10:04:56.653Z,17.95
2023-05-21T10:07:27.862Z,18.18
2023-05-21T10:09:58.553Z,18.12
2023-05-21T10:12:31.453Z,18.04
2023-05-21T10:15:05.191Z,17.91
2023-05-21T10:17:37.271Z,18.16
2023-05-21T10:20:08.570Z,18.09
2023-05-21T10:22:38.490Z,18.17
2023-05-21T10:25:11.361Z,18.24
2023-05-21T10:27:40.682Z,18.16
2023-05-21T10:30:10.697Z,18.25
2023-05-21T10:32:42.168Z,18.48
2023-05-21T10:35:12.513Z,18.43
2023-05-21T10:37:42.473Z,18.53
2023-05-21T10:40:12.549Z,18.48
2023-05-21T10:43:16.625Z,18.46
2023-05-21T10:45:48.640Z,18.44
2023-05-21T10:48:17.495Z,18.51
2023-05-21T10:51:24.143Z,18.46
2023-05-21T10:54:14.997Z,18.49
2023-05-21T10:57:23.089Z,18.57
2023-05-21T10:59:53.010Z,18.72
2023-05-21T11:02:23.786Z,18.76
2023-05-21T11:05:01.316Z,18.69
2023-05-21T11:08:02.238Z,18.84
2023-05-21T11:10:45.013Z,18.85
2023-05-21T11:13:20.382Z,18.87
2023-05-21T11:15:58.769Z,19.00
2023-05-21T11:18:31.915Z,19.06
2023-05-21T11:21:11.121Z,19.02
2023-05-21T11:23:53.003Z,19.06
2023-05-21T11:26:24.614Z,19.20
2023-05-21T11:29:05.943Z,19.01
2023-05-21T11:31:39.263Z,19.05
2023-05-21T11:34:28.943Z,19.31
2023-05-21T11:37:21.198Z,19.11
2023-05-21T11:39:51.337Z,19.31
2023-05-21T11:42:39.676Z,19.26
2023-05-21T11:45:09.395Z,19.37
2023-05-21T11:47:38.347Z,19.47
2023-05-21T11:50:13.032Z,19.33
2023-05-21T11:52:43.180Z,19.49
2023-05-21T11:55:12.680Z,19.35
2023-05-21T11:57:44.870Z,19.52
2023-05-21T12:00:17.035Z,19.71
2023-05-21T12:02:52.578Z,19.34
2023-05-21T12:05:22.024Z,19.61
2023-05-21T12:07:51.150Z,19.58
2023-05-21T12:10:24.562Z,19.79
2023-05-21T12:12:57.047Z,19.71
2023-05-21T12:15:28.142Z,19.78
2023-05-21T12:17:57.436Z,19.84
2023-05-21T12:20:29.764Z,19.77
2023-05-21T12:22:59.671Z,19.90
2023-05-21T12:25:30.555Z,20.07
2023-05-21T12:28:01.990Z,20.10
2023-05-21T12:30:31.174Z,20.11
2023-05-21T12:33:01.094Z,20.07
2023-05-21T12:35:32.583Z,20.00
2023-05-21T12:38:03.611Z,20.00
2023-05-21T12:40:38.196Z,20.01
2023-05-21T12:43:08.142Z,20.10
2023-05-21T12:45:39.966Z,20.36
2023-05-21T12:48:09.640Z,20.32
2023-05-21T12:50:42.023Z,20.23
2023-05-21T12:53:13.986Z,20.31
2023-05-21T12:55:42.975Z,20.43
2023-05-21T12:58:14.875Z,20.37
2023-05-21T13:00:46.142Z,20.38
2023-05-21T13:03:15.316Z,20.51
2023-05-21T13:05:44.472Z,20.55
2023-05-21T13:08:14.924Z,20.75
2023-05-21T13:10:44.006Z,20.73
2023-05-21T13:13:13.097Z,20.97
2023-05-21T13:15:42.044Z,20.89
2023-05-21T13:18:12.917Z,21.05
2023-05-21T13:20:41.837Z,21.14
2023-05-21T13:23:11.896Z,21.34
2023-05-21T13:25:41.000Z,21.47
2023-05-21T13:28:12.678Z,21.24
2023-05-21T13:30:42.270Z,21.46
2023-05-21T13:33:12.686Z,21.32
2023-05-21T13:35:41.969Z,21.50
2023-05-21T13:38:10.917Z,21.29
2023-05-21T13:40:40.369Z,21.64
2023-05-21T13:43:09.563Z,21.47
2023-05-21T13:45:38.607Z,21.79
2023-05-21T13:48:07.620Z,21.41
2023-05-21T13:50:37.483Z,21.91
2023-05-21T13:53:06.593Z,22.03
2023-05-21T13:55:35.504Z,22.02
2023-05-21T13:58:04.603Z,21.85
2023-05-21T14:00:34.517Z,22.05
2023-05-21T14:03:03.850Z,22.09
2023-05-21T14:05:32.942Z,22.15
2023-05-21T14:08:02.208Z,22.23
2023-05-21T14:10:31.294Z,22.59
2023-05-21T14:13:11.349Z,22.32
2023-05-21T14:15:49.043Z,22.22
2023-05-21T14:18:18.061Z,22.35
2023-05-21T14:20:47.091Z,22.66
2023-05-21T14:23:16.706Z,22.76
2023-05-21T14:25:45.620Z,22.83
2023-05-21T14:28:14.522Z,22.69
2023-05-21T14:30:43.386Z,22.66
2023-05-21T14:33:13.899Z,23.07
2023-05-21T14:35:44.597Z,23.09
2023-05-21T14:38:13.485Z,23.32
2023-05-21T14:40:42.649Z,23.18
2023-05-21T14:43:11.611Z,23.38
2023-05-21T14:45:40.688Z,23.25
2023-05-21T14:48:09.936Z,23.31
2023-05-21T14:50:39.707Z,23.52
2023-05-21T14:53:10.015Z,23.50
2023-05-21T14:55:39.850Z,23.28
2023-05-21T14:58:09.531Z,23.47
2023-05-21T15:00:39.822Z,23.56
2023-05-21T15:03:09.043Z,23.71
2023-05-21T15:05:38.419Z,23.63
2023-05-21T15:08:08.750Z,23.78
2023-05-21T15:10:37.790Z,23.92
2023-05-21T15:13:06.764Z,23.81
2023-05-21T15:15:36.889Z,23.98
2023-05-21T15:18:06.095Z,23.83
2023-05-21T15:20:35.148Z,24.02
2023-05-21T15:23:15.907Z,24.06
2023-05-21T15:25:46.084Z,24.25
2023-05-21T15:28:15.174Z,24.51
2023-05-21T15:30:44.317Z,24.55
2023-05-21T15:33:13.331Z,24.06
2023-05-21T15:35:42.843Z,24.52
2023-05-21T15:38:12.281Z,24.76
2023-05-21T15:40:44.956Z,24.72
2023-05-21T15:43:13.852Z,24.54
2023-05-21T15:45:42.721Z,24.61
2023-05-21T15:48:13.372Z,24.91
2023-05-21T15:50:42.541Z,24.80
2023-05-21T15:53:11.946Z,24.96
2023-05-21T15:55:41.034Z,24.85
2023-05-21T15:58:09.956Z,24.68
2023-05-21T16:00:39.558Z,25.02
2023-05-21T16:03:09.188Z,24.66
2023-05-21T16:05:38.376Z,24.75
2023-05-21T16:08:07.553Z,24.83
2023-05-21T16:10:36.491Z,25.07
2023-05-21T16:13:05.533Z,25.20
2023-05-21T16:15:34.741Z,24.84
2023-05-21T16:18:03.860Z,24.99
2023-05-21T16:20:33.972Z,24.99
2023-05-21T16:23:04.399Z,24.82
2023-05-21T16:25:34.925Z,24.85
2023-05-21T16:28:05.084Z,24.58
2023-05-21T16:30:34.294Z,24.88
2023-05-21T16:33:03.297Z,24.63
2023-05-21T16:35:32.487Z,24.73
2023-05-21T16:38:01.621Z,24.49
2023-05-21T16:40:32.072Z,24.76
2023-05-21T16:43:02.262Z,24.48
2023-05-21T16:45:40.201Z,24.90
2023-05-21T16:48:09.922Z,24.60
2023-05-21T16:50:39.231Z,24.93
2023-05-21T16:53:10.269Z,24.78
2023-05-21T16:55:39.621Z,24.74
2023-05-21T16:58:09.926Z,24.66
2023-05-21T17:00:39.675Z,24.53
2023-05-21T17:03:08.870Z,24.71
2023-05-21T17:05:38.123Z,25.16
2023-05-21T17:08:08.182Z,24.55
2023-05-21T17:10:37.229Z,25.14
2023-05-21T17:13:17.523Z,24.82
2023-05-21T17:15:51.968Z,24.97
2023-05-21T17:18:21.437Z,24.48
2023-05-21T17:20:50.670Z,24.74
2023-05-21T17:23:19.960Z,25.27
2023-05-21T17:25:48.941Z,24.90
2023-05-21T17:28:18.145Z,24.67
2023-05-21T17:30:49.269Z,24.48
2023-05-21T17:33:18.826Z,24.65
2023-05-21T17:35:47.890Z,24.52
2023-05-21T17:38:16.754Z,24.30
2023-05-21T17:40:45.706Z,24.40
2023-05-21T17:43:14.605Z,24.48
2023-05-21T17:45:43.670Z,24.23
2023-05-21T17:48:12.812Z,24.53
2023-05-21T17:50:42.136Z,24.34
2023-05-21T17:53:11.125Z,24.84
2023-05-21T17:55:41.057Z,24.72
2023-05-21T17:58:10.603Z,24.54
2023-05-21T18:00:40.112Z,24.50
2023-05-21T18:03:09.592Z,24.70
2023-05-21T18:05:39.050Z,24.91
2023-05-21T18:08:10.525Z,25.02
2023-05-21T18:10:39.469Z,25.15
2023-05-21T18:13:08.463Z,25.57
2023-05-21T18:15:37.586Z,25.65
2023-05-21T18:18:06.696Z,25.58
2023-05-21T18:20:35.961Z,25.32
2023-05-21T18:23:05.013Z,25.54
2023-05-21T18:25:33.962Z,25.46
2023-05-21T18:28:03.001Z,25.29
2023-05-21T18:30:31.987Z,25.59
2023-05-21T18:33:01.250Z,25.58
2023-05-21T18:35:31.889Z,25.51
2023-05-21T18:38:00.851Z,25.75
2023-05-21T18:40:30.780Z,25.61
2023-05-21T18:43:01.179Z,25.39
2023-05-21T18:45:30.485Z,25.54
2023-05-21T18:48:00.205Z,25.41
2023-05-21T18:50:29.579Z,25.48
2023-05-21T18:52:58.542Z,25.37
2023-05-21T18:55:27.581Z,25.78
2023-05-21T18:57:56.649Z,26.08
2023-05-21T19:00:26.578Z,26.13
2023-05-21T19:02:56.994Z,26.04
2023-05-21T19:05:26.249Z,25.89
2023-05-21T19:07:56.304Z,25.93
2023-05-21T19:10:27.127Z,25.72
2023-05-21T19:12:56.124Z,25.73
2023-05-21T19:15:24.991Z,25.92
2023-05-21T19:17:53.976Z,26.07
2023-05-21T19:20:25.257Z,26.28
2023-05-21T19:22:55.072Z,26.63
2023-05-21T19:25:24.478Z,26.16
2023-05-21T19:27:53.454Z,26.43
2023-05-21T19:30:22.291Z,26.60
2023-05-21T19:32:51.497Z,26.38
2023-05-21T19:35:21.475Z,26.54
2023-05-21T19:37:50.542Z,26.84
2023-05-21T19:40:19.639Z,26.89
2023-05-21T19:42:50.038Z,26.83
2023-05-21T19:45:18.961Z,27.02
2023-05-21T19:47:47.995Z,27.14
2023-05-21T19:50:16.911Z,27.00
2023-05-21T19:52:45.758Z,27.42
2023-05-21T19:55:15.101Z,27.06
2023-05-21T19:57:44.405Z,27.11
2023-05-21T20:00:15.314Z,27.14
2023-05-21T20:02:44.427Z,27.29
2023-05-21T20:05:13.504Z,27.16
2023-05-21T20:07:42.501Z,26.91
2023-05-21T20:10:11.550Z,26.58
2023-05-21T20:12:40.366Z,26.98
2023-05-21T20:15:09.597Z,27.05
2023-05-21T20:17:41.591Z,26.58
2023-05-21T20:20:13.203Z,26.86
2023-05-21T20:22:42.041Z,26.80
2023-05-21T20:25:11.088Z,26.84
2023-05-21T20:27:39.974Z,26.70
2023-05-21T20:30:09.320Z,26.52
2023-05-21T20:32:38.366Z,26.42
2023-05-21T20:35:11.580Z,26.74
2023-05-21T20:37:40.488Z,26.68
2023-05-21T20:40:11.218Z,27.10
2023-05-21T20:42:42.286Z,27.17
2023-05-21T20:45:13.457Z,26.92
2023-05-21T20:47:43.307Z,26.95
2023-05-21T20:50:12.749Z,26.87
2023-05-21T20:52:41.689Z,26.73
2023-05-21T20:55:11.065Z,26.85
2023-05-21T20:57:39.941Z,27.23
2023-05-21T21:00:12.129Z,27.17
2023-05-21T21:02:41.220Z,27.07
2023-05-21T21:05:10.890Z,27.25
2023-05-21T21:07:40.649Z,27.07
2023-05-21T21:10:10.158Z,27.26
2023-05-21T21:12:39.216Z,27.75
2023-05-21T21:15:08.952Z,27.36
2023-05-21T21:17:37.971Z,27.58
2023-05-21T21:20:08.170Z,27.63
2023-05-21T21:22:37.150Z,27.36
2023-05-21T21:25:06.804Z,27.68
2023-05-21T21:27:36.064Z,27.40
2023-05-21T21:30:05.419Z,27.43
2023-05-21T21:32:36.244Z,27.21
2023-05-21T21:35:05.462Z,27.60
2023-05-21T21:37:34.935Z,27.73
2023-05-21T21:40:04.115Z,27.78
2023-05-21T21:42:34.395Z,27.73
2023-05-21T21:45:04.179Z,27.84
2023-05-21T21:47:34.263Z,27.88
2023-05-21T21:50:03.238Z,27.85
2023-05-21T21:52:33.362Z,28.11
2023-05-21T21:55:02.325Z,27.93
2023-05-21T21:57:33.916Z,28.25
2023-05-21T22:00:03.298Z,28.26
2023-05-21T22:02:36.027Z,28.22
2023-05-21T22:05:05.293Z,28.47
2023-05-21T22:07:35.474Z,28.40
2023-05-21T22:10:04.716Z,28.39
2023-05-21T22:12:34.583Z,28.61
2023-05-21T22:15:08.655Z,28.67
2023-05-21T22:17:37.548Z,28.66
2023-05-21T22:20:06.959Z,28.66
2023-05-21T22:22:35.920Z,28.74
2023-05-21T22:25:05.146Z,28.81
2023-05-21T22:27:34.278Z,28.87
2023-05-21T22:30:04.170Z,28.84
2023-05-21T22:32:34.990Z,28.66
2023-05-21T22:35:04.893Z,28.95
2023-05-21T22:37:34.013Z,29.02
2023-05-21T22:40:02.889Z,28.96
2023-05-21T22:42:36.986Z,29.09
2023-05-21T22:45:06.305Z,29.09
2023-05-21T22:47:37.788Z,29.09
2023-05-21T22:50:08.686Z,29.06
2023-05-21T22:52:38.800Z,29.14
2023-05-21T22:55:10.301Z,29.01
2023-05-21T22:57:39.259Z,28.91
2023-05-21T23:00:10.307Z,28.83
2023-05-21T23:02:39.521Z,29.08
2023-05-21T23:05:08.847Z,28.77
2023-05-21T23:07:37.799Z,28.83
2023-05-21T23:10:07.022Z,28.92
2023-05-21T23:12:36.026Z,28.62
2023-05-21T23:15:06.095Z,28.63
2023-05-21T23:17:36.564Z,28.67
2023-05-21T23:20:06.680Z,28.93
2023-05-21T23:22:36.443Z,28.82
2023-05-21T23:25:06.139Z,28.90
2023-05-21T23:27:35.153Z,29.02
2023-05-21T23:30:04.005Z,29.07
2023-05-21T23:32:35.142Z,28.71
2023-05-21T23:35:04.185Z,29.02
2023-05-21T23:37:34.199Z,28.94
2023-05-21T23:40:03.077Z,29.09
2023-05-21T23:42:33.017Z,29.02
2023-05-21T23:45:01.950Z,28.91
2023-05-21T23:47:34.472Z,29.25
2023-05-21T23:50:03.414Z,28.95
2023-05-21T23:52:35.324Z,29.00
2023-05-21T23:55:04.291Z,29.37
2023-05-21T23:57:33.205Z,29.21
